createdAt,value
2018-03-14T00:01:07.986Z,4.18
2018-03-14T00:03:36.213Z,8.77
2018-03-14T00:06:03.808Z,6.82
2018-03-14T00:08:31.277Z,8.93
2018-03-14T00:10:58.741Z,7.00
2018-03-14T00:13:26.237Z,6.00
2018-03-14T00:15:55.213Z,5.57
2018-03-14T00:18:25.326Z,5.80
2018-03-14T00:20:56.909Z,6.75
2018-03-14T00:23:24.368Z,6.83
2018-03-14T00:25:51.861Z,5.77
2018-03-14T00:28:19.321Z,8.17
2018-03-14T00:30:46.788Z,4.60
2018-03-14T00:33:14.674Z,7.63
2018-03-14T00:35:53.948Z,5.90
2018-03-14T00:38:21.416Z,8.68
2018-03-14T00:40:48.964Z,6.30
2018-03-14T00:43:18.078Z,7.03
2018-03-14T00:45:46.404Z,9.05
2018-03-14T00:48:14.136Z,9.35
2018-03-14T00:50:42.344Z,9.07
2018-03-14T00:53:10.621Z,9.23
2018-03-14T00:55:38.536Z,7.22
2018-03-14T00:58:06.130Z,13.75
2018-03-14T01:00:33.817Z,9.97
2018-03-14T01:03:02.238Z,11.20
2018-03-14T01:05:30.385Z,7.50
2018-03-14T01:07:57.868Z,8.33
2018-03-14T01:10:25.785Z,9.77
2018-03-14T01:12:54.218Z,13.80
2018-03-14T01:15:22.382Z,12.93
2018-03-14T01:17:51.300Z,15.57
2018-03-14T01:20:20.682Z,9.32
2018-03-14T01:22:48.149Z,11.23
2018-03-14T01:25:15.631Z,12.80
2018-03-14T01:27:43.089Z,13.33
2018-03-14T01:30:10.584Z,10.93
2018-03-14T01:32:38.061Z,10.03
2018-03-14T01:35:06.296Z,14.40
2018-03-14T01:37:33.792Z,11.77
2018-03-14T01:40:01.547Z,9.40
2018-03-14T01:42:29.081Z,14.70
2018-03-14T01:44:56.589Z,12.00
2018-03-14T01:47:24.044Z,8.57
2018-03-14T01:49:51.537Z,12.60
2018-03-14T01:52:20.020Z,9.10
2018-03-14T01:54:48.810Z,12.98
2018-03-14T01:57:16.313Z,12.30
2018-03-14T01:59:43.793Z,13.97
2018-03-14T02:02:11.806Z,11.07
2018-03-14T02:04:40.798Z,10.52
2018-03-14T02:07:08.288Z,9.77
2018-03-14T02:09:36.073Z,13.17
2018-03-14T02:12:04.453Z,10.10
2018-03-14T02:14:31.911Z,14.60
2018-03-14T02:16:59.405Z,13.87
2018-03-14T02:19:26.973Z,15.10
2018-03-14T02:21:54.428Z,17.87
2018-03-14T02:24:22.653Z,17.90
2018-03-14T02:26:50.153Z,17.53
2018-03-14T02:29:19.102Z,14.65
2018-03-14T02:31:47.019Z,14.50
2018-03-14T02:34:16.062Z,16.50
2018-03-14T02:36:55.439Z,12.10
2018-03-14T02:39:22.905Z,15.47
2018-03-14T02:41:50.377Z,14.13
2018-03-14T02:44:18.952Z,20.35
2018-03-14T02:46:46.467Z,19.27
2018-03-14T02:49:14.333Z,14.57
2018-03-14T02:51:41.820Z,19.07
2018-03-14T02:54:09.329Z,15.73
2018-03-14T02:56:36.804Z,15.43
2018-03-14T02:59:05.401Z,17.85
2018-03-14T03:01:34.178Z,15.73
2018-03-14T03:04:02.149Z,12.73
2018-03-14T03:06:29.612Z,12.77
2018-03-14T03:08:57.134Z,12.47
2018-03-14T03:11:26.250Z,15.70
2018-03-14T03:13:54.438Z,19.27
2018-03-14T03:16:22.804Z,16.15
2018-03-14T03:18:50.296Z,12.10
2018-03-14T03:21:17.762Z,8.87
2018-03-14T03:23:46.754Z,13.90
2018-03-14T03:26:14.938Z,8.83
2018-03-14T03:28:44.065Z,15.30
2018-03-14T03:31:13.225Z,8.38
2018-03-14T03:33:41.511Z,8.47
2018-03-14T03:36:09.637Z,11.20
2018-03-14T03:38:38.761Z,9.50
2018-03-14T03:41:06.550Z,9.30
2018-03-14T03:43:34.044Z,11.20
2018-03-14T03:46:02.416Z,9.77
2018-03-14T03:48:29.873Z,11.00
2018-03-14T03:50:59.824Z,11.27
2018-03-14T03:53:27.918Z,12.70
2018-03-14T03:55:58.650Z,12.70
2018-03-14T03:58:27.100Z,15.16
2018-03-14T04:00:55.362Z,12.75
2018-03-14T04:03:22.823Z,13.90
2018-03-14T04:05:50.285Z,11.37
2018-03-14T04:08:19.732Z,11.53
2018-03-14T04:10:47.561Z,12.47
2018-03-14T04:13:15.051Z,11.60
2018-03-14T04:15:43.474Z,12.30
2018-03-14T04:18:11.026Z,11.15
2018-03-14T04:20:38.483Z,10.53
2018-03-14T04:23:06.144Z,10.37
2018-03-14T04:25:33.628Z,8.77
2018-03-14T04:28:01.177Z,11.00
2018-03-14T04:30:29.182Z,10.95
2018-03-14T04:32:56.653Z,12.75
2018-03-14T04:35:25.820Z,9.02
2018-03-14T04:37:54.042Z,11.98
2018-03-14T04:40:21.541Z,14.87
2018-03-14T04:42:49.597Z,12.03
2018-03-14T04:45:17.106Z,9.47
2018-03-14T04:47:44.577Z,8.93
2018-03-14T04:50:12.022Z,15.77
2018-03-14T04:52:40.352Z,11.35
2018-03-14T04:55:09.632Z,11.00
2018-03-14T04:57:37.109Z,12.02
2018-03-14T05:00:06.166Z,10.60
2018-03-14T05:05:08.432Z,13.80
2018-03-14T05:07:36.666Z,13.87
2018-03-14T05:10:08.690Z,12.62
2018-03-14T05:12:36.187Z,12.87
2018-03-14T05:15:03.668Z,13.43
2018-03-14T05:17:31.113Z,11.57
2018-03-14T05:19:58.663Z,14.07
2018-03-14T05:22:26.108Z,13.70
2018-03-14T05:24:57.804Z,16.30
2018-03-14T05:27:25.258Z,13.05
2018-03-14T05:29:52.745Z,18.27
2018-03-14T05:32:21.184Z,12.83
2018-03-14T05:34:49.405Z,13.08
2018-03-14T05:37:16.868Z,12.40
2018-03-14T05:39:44.346Z,14.50
2018-03-14T05:42:11.839Z,16.25
2018-03-14T05:44:39.284Z,16.20
2018-03-14T05:47:06.780Z,19.37
2018-03-14T05:49:34.238Z,14.20
2018-03-14T05:52:01.746Z,15.13
2018-03-14T05:54:29.221Z,12.55
2018-03-14T05:57:01.489Z,15.25
2018-03-14T05:59:28.962Z,13.20
2018-03-14T06:01:56.479Z,13.50
2018-03-14T06:04:24.981Z,15.70
2018-03-14T06:06:53.200Z,12.03
2018-03-14T06:09:20.657Z,15.88
2018-03-14T06:11:55.392Z,12.90
2018-03-14T06:14:23.299Z,14.07
2018-03-14T06:16:50.786Z,13.68
2018-03-14T06:19:20.468Z,15.67
2018-03-14T06:21:47.939Z,14.07
2018-03-14T06:24:15.383Z,12.52
2018-03-14T06:26:46.480Z,16.85
2018-03-14T06:29:14.300Z,12.03
2018-03-14T06:31:42.981Z,13.30
2018-03-14T06:34:10.480Z,13.60
2018-03-14T06:36:38.845Z,14.30
2018-03-14T06:39:06.320Z,10.87
2018-03-14T06:41:37.325Z,14.07
2018-03-14T06:44:04.781Z,11.50
2018-03-14T06:46:32.236Z,13.02
2018-03-14T06:48:59.745Z,13.35
2018-03-14T06:51:27.292Z,12.52
2018-03-14T06:53:54.753Z,15.57
2018-03-14T06:56:26.196Z,17.20
2018-03-14T06:59:05.480Z,16.17
2018-03-14T07:01:45.519Z,13.82
2018-03-14T07:04:24.861Z,11.68
2018-03-14T07:06:52.340Z,18.53
2018-03-14T07:09:22.018Z,16.58
2018-03-14T07:11:49.474Z,13.17
2018-03-14T07:14:16.979Z,15.02
2018-03-14T07:16:44.425Z,13.33
2018-03-14T07:19:11.901Z,12.37
2018-03-14T07:21:39.355Z,18.58
2018-03-14T07:24:07.659Z,13.07
2018-03-14T07:26:36.574Z,14.55
2018-03-14T07:29:04.856Z,15.57
2018-03-14T07:31:32.391Z,12.55
2018-03-14T07:34:02.257Z,12.30
2018-03-14T07:36:29.709Z,13.15
2018-03-14T07:38:58.901Z,19.45
2018-03-14T07:41:27.071Z,14.37
2018-03-14T07:43:56.219Z,12.02
2018-03-14T07:46:23.689Z,15.63
2018-03-14T07:48:52.014Z,14.10
2018-03-14T07:51:23.902Z,13.90
2018-03-14T07:53:52.241Z,14.50
2018-03-14T07:56:19.697Z,18.75
2018-03-14T07:58:47.973Z,16.30
2018-03-14T08:01:15.488Z,15.97
2018-03-14T08:03:43.721Z,14.70
2018-03-14T08:06:13.036Z,14.57
2018-03-14T08:08:40.502Z,15.07
2018-03-14T08:11:07.974Z,15.27
2018-03-14T08:13:42.582Z,18.50
2018-03-14T08:16:10.778Z,13.10
2018-03-14T08:18:39.924Z,14.35
2018-03-14T08:21:07.365Z,13.65
2018-03-14T08:23:35.297Z,20.33
2018-03-14T08:26:02.816Z,16.02
2018-03-14T08:28:34.933Z,14.77
2018-03-14T08:31:02.461Z,15.67
2018-03-14T08:33:31.626Z,14.27
2018-03-14T08:35:59.913Z,14.97
2018-03-14T08:38:27.395Z,14.27
2018-03-14T08:40:55.311Z,16.62
2018-03-14T08:43:22.769Z,13.67
2018-03-14T08:45:55.573Z,18.80
2018-03-14T08:48:23.549Z,15.27
2018-03-14T08:50:53.262Z,14.30
2018-03-14T08:53:22.289Z,14.83
2018-03-14T08:55:51.421Z,15.10
2018-03-14T08:58:18.877Z,14.03
2018-03-14T09:00:46.350Z,18.02
2018-03-14T09:03:13.961Z,14.82
2018-03-14T09:05:42.873Z,16.90
2018-03-14T09:08:10.936Z,15.33
2018-03-14T09:10:38.418Z,13.83
2018-03-14T09:13:05.902Z,16.03
2018-03-14T09:15:34.110Z,12.20
2018-03-14T09:18:02.353Z,12.70
2018-03-14T09:20:31.516Z,15.73
2018-03-14T09:23:00.065Z,15.10
2018-03-14T09:25:27.597Z,13.20
2018-03-14T09:27:55.045Z,14.27
2018-03-14T09:30:22.546Z,10.45
2018-03-14T09:32:50.816Z,13.90
2018-03-14T09:35:18.908Z,16.67
2018-03-14T09:37:48.382Z,17.87
2018-03-14T09:40:15.857Z,13.25
2018-03-14T09:42:44.373Z,13.80
2018-03-14T09:45:22.892Z,12.73
2018-03-14T09:47:50.972Z,12.90
2018-03-14T09:50:18.469Z,15.27
2018-03-14T09:52:46.181Z,15.98
2018-03-14T09:55:15.236Z,16.00
2018-03-14T09:57:43.483Z,18.00
2018-03-14T10:00:12.021Z,13.17
2018-03-14T10:02:42.016Z,13.07
2018-03-14T10:05:11.413Z,15.93
2018-03-14T10:07:39.759Z,13.04
2018-03-14T10:10:07.946Z,11.18
2018-03-14T10:12:36.913Z,13.17
2018-03-14T10:15:08.169Z,13.20
2018-03-14T10:17:35.653Z,13.18
2018-03-14T10:20:03.211Z,15.00
2018-03-14T10:22:31.050Z,13.27
2018-03-14T10:24:58.496Z,12.87
2018-03-14T10:27:26.062Z,13.43
2018-03-14T10:29:58.861Z,13.65
2018-03-14T10:32:26.330Z,12.60
2018-03-14T10:34:54.949Z,14.57
2018-03-14T10:37:22.569Z,16.92
2018-03-14T10:39:50.065Z,11.40
2018-03-14T10:42:17.515Z,14.47
2018-03-14T10:44:45.006Z,14.70
2018-03-14T10:47:18.119Z,14.45
2018-03-14T10:49:46.898Z,14.00
2018-03-14T10:52:15.785Z,12.70
2018-03-14T10:54:44.120Z,13.95
2018-03-14T10:57:11.605Z,16.20
2018-03-14T10:59:39.338Z,15.05
2018-03-14T11:02:12.334Z,15.13
2018-03-14T11:04:39.852Z,19.07
2018-03-14T11:07:08.236Z,14.53
2018-03-14T11:09:35.893Z,14.70
2018-03-14T11:12:04.301Z,16.77
2018-03-14T11:14:32.574Z,12.77
2018-03-14T11:17:04.483Z,12.30
2018-03-14T11:19:32.685Z,16.27
2018-03-14T11:22:00.226Z,14.80
2018-03-14T11:24:28.428Z,12.40
2018-03-14T11:26:55.905Z,13.23
2018-03-14T11:29:24.344Z,12.82
2018-03-14T11:31:56.458Z,14.33
2018-03-14T11:34:23.861Z,15.77
2018-03-14T11:36:52.591Z,13.53
2018-03-14T11:39:22.598Z,13.65
2018-03-14T11:41:50.048Z,13.00
2018-03-14T11:44:17.524Z,15.57
2018-03-14T11:46:45.381Z,18.40
2018-03-14T11:49:14.147Z,10.82
2018-03-14T11:51:41.712Z,13.50
2018-03-14T11:54:09.229Z,11.57
2018-03-14T11:56:36.742Z,14.23
2018-03-14T11:59:09.789Z,20.07
2018-03-14T12:01:38.016Z,14.60
2018-03-14T12:04:06.230Z,14.55
2018-03-14T12:06:34.864Z,11.98
2018-03-14T12:09:02.441Z,15.10
2018-03-14T12:11:29.951Z,12.80
2018-03-14T12:14:00.098Z,13.05
2018-03-14T12:16:27.578Z,9.73
2018-03-14T12:18:55.134Z,10.68
2018-03-14T12:21:24.286Z,8.85
2018-03-14T12:23:51.741Z,11.63
2018-03-14T12:26:19.269Z,13.02
2018-03-14T12:28:46.706Z,10.65
2018-03-14T12:31:14.194Z,18.12
2018-03-14T12:33:42.473Z,12.65
2018-03-14T12:36:09.927Z,9.55
2018-03-14T12:38:37.453Z,13.40
2018-03-14T12:41:04.954Z,11.23
2018-03-14T12:43:32.421Z,12.05
2018-03-14T12:46:00.572Z,10.07
2018-03-14T12:48:28.103Z,9.95
2018-03-14T12:50:56.488Z,9.88
2018-03-14T12:53:23.946Z,8.53
2018-03-14T12:58:26.577Z,7.37
2018-03-14T13:00:56.252Z,12.53
2018-03-14T13:03:23.686Z,10.47
2018-03-14T13:05:53.475Z,12.27
2018-03-14T13:08:21.869Z,10.52
2018-03-14T13:10:50.097Z,5.95
2018-03-14T13:13:17.685Z,9.07
2018-03-14T13:15:45.906Z,7.33
2018-03-14T13:18:13.337Z,10.67
2018-03-14T13:20:43.141Z,13.65
2018-03-14T13:23:11.552Z,8.93
2018-03-14T13:25:39.065Z,15.30
2018-03-14T13:28:08.006Z,11.93
2018-03-14T13:30:36.418Z,7.65
2018-03-14T13:33:08.545Z,10.97
2018-03-14T13:35:37.520Z,9.68
2018-03-14T13:38:04.995Z,12.30
2018-03-14T13:40:32.509Z,10.17
2018-03-14T13:43:00.643Z,9.40
2018-03-14T13:45:28.894Z,11.10
2018-03-14T13:47:56.398Z,10.03
2018-03-14T13:50:24.949Z,9.57
2018-03-14T13:52:53.170Z,8.27
2018-03-14T13:55:22.065Z,10.82
2018-03-14T13:57:50.269Z,10.17
2018-03-14T14:00:19.944Z,9.77
2018-03-14T14:02:47.950Z,8.37
2018-03-14T14:05:16.518Z,10.27
2018-03-14T14:07:46.629Z,14.07
2018-03-14T14:10:14.333Z,11.30
2018-03-14T14:12:43.373Z,14.00
2018-03-14T14:15:11.751Z,9.60
2018-03-14T14:17:40.778Z,10.97
2018-03-14T14:20:08.226Z,10.10
2018-03-14T14:22:36.504Z,12.40
2018-03-14T14:25:04.032Z,13.67
2018-03-14T14:27:33.749Z,15.48
2018-03-14T14:30:03.797Z,12.50
2018-03-14T14:32:31.971Z,13.00
2018-03-14T14:35:00.271Z,15.23
2018-03-14T14:37:28.379Z,11.17
2018-03-14T14:39:56.601Z,12.03
2018-03-14T14:42:24.986Z,14.60
2018-03-14T14:44:52.534Z,11.27
2018-03-14T14:47:19.995Z,10.80
2018-03-14T14:49:47.862Z,9.13
2018-03-14T14:52:15.322Z,15.47
2018-03-14T14:54:42.847Z,13.77
2018-03-14T14:57:10.313Z,10.67
2018-03-14T14:59:39.305Z,12.15
2018-03-14T15:02:06.846Z,9.73
2018-03-14T15:04:35.883Z,10.82
2018-03-14T15:07:03.523Z,9.88
2018-03-14T15:09:32.685Z,10.60
2018-03-14T15:12:00.909Z,11.88
2018-03-14T15:14:29.081Z,15.67
2018-03-14T15:16:58.149Z,10.90
2018-03-14T15:19:27.170Z,12.13
2018-03-14T15:22:00.978Z,10.60
2018-03-14T15:24:29.741Z,9.53
2018-03-14T15:26:57.942Z,8.20
2018-03-14T15:29:25.679Z,17.58
2018-03-14T15:31:55.495Z,16.35
2018-03-14T15:34:24.847Z,10.40
2018-03-14T15:36:52.845Z,10.43
2018-03-14T15:39:20.322Z,18.15
2018-03-14T15:41:50.158Z,13.35
2018-03-14T15:44:18.637Z,18.27
2018-03-14T15:46:47.549Z,10.77
2018-03-14T15:49:16.614Z,13.07
2018-03-14T15:51:44.155Z,11.03
2018-03-14T15:54:12.410Z,9.30
2018-03-14T15:56:40.770Z,9.30
2018-03-14T15:59:08.482Z,10.07
2018-03-14T16:01:36.850Z,8.20
2018-03-14T16:04:04.321Z,9.52
2018-03-14T16:06:31.773Z,15.70
2018-03-14T16:08:59.284Z,8.30
2018-03-14T16:11:26.741Z,9.85
2018-03-14T16:13:55.325Z,8.60
2018-03-14T16:16:25.237Z,12.10
2018-03-14T16:18:53.561Z,9.07
2018-03-14T16:21:28.905Z,7.47
2018-03-14T16:23:58.833Z,9.40
2018-03-14T16:26:27.861Z,8.03
2018-03-14T16:28:56.691Z,8.18
2018-03-14T16:31:25.564Z,11.27
2018-03-14T16:33:53.038Z,9.70
2018-03-14T16:36:26.864Z,8.13
2018-03-14T16:38:55.662Z,10.63
2018-03-14T16:41:23.278Z,11.20
2018-03-14T16:43:51.125Z,9.07
2018-03-14T16:46:19.443Z,12.18
2018-03-14T16:48:47.475Z,12.47
2018-03-14T16:51:14.930Z,11.83
2018-03-14T16:53:43.414Z,11.05
2018-03-14T16:56:11.343Z,11.47
2018-03-14T16:58:39.441Z,9.50
2018-03-14T17:01:07.156Z,9.87
2018-03-14T17:03:34.617Z,10.95
2018-03-14T17:06:02.605Z,13.53
2018-03-14T17:08:30.100Z,11.77
2018-03-14T17:10:58.045Z,13.55
2018-03-14T17:13:25.505Z,10.07
2018-03-14T17:15:52.992Z,10.37
2018-03-14T17:18:20.422Z,13.97
2018-03-14T17:20:49.401Z,13.10
2018-03-14T17:23:18.916Z,13.65
2018-03-14T17:25:48.267Z,15.93
2018-03-14T17:28:15.722Z,14.10
2018-03-14T17:30:43.283Z,10.60
2018-03-14T17:33:10.792Z,14.12
2018-03-14T17:35:38.247Z,15.57
2018-03-14T17:38:09.500Z,17.48
2018-03-14T17:40:37.077Z,15.90
2018-03-14T17:43:05.315Z,15.70
2018-03-14T17:45:32.782Z,13.30
2018-03-14T17:48:01.189Z,20.15
2018-03-14T17:50:29.486Z,17.60
2018-03-14T17:52:57.830Z,18.60
2018-03-14T17:55:27.020Z,20.67
2018-03-14T17:57:55.082Z,21.58
2018-03-14T18:00:22.743Z,22.47
2018-03-14T18:02:51.994Z,17.62
2018-03-14T18:05:19.518Z,17.80
2018-03-14T18:07:47.029Z,16.42
2018-03-14T18:10:14.487Z,17.13
2018-03-14T18:12:42.001Z,22.37
2018-03-14T18:15:10.866Z,26.73
2018-03-14T18:17:38.355Z,17.43
2018-03-14T18:20:05.818Z,20.63
2018-03-14T18:22:33.333Z,16.70
2018-03-14T18:25:00.902Z,15.15
2018-03-14T18:27:29.012Z,17.62
2018-03-14T18:29:56.487Z,20.55
2018-03-14T18:32:24.018Z,22.80
2018-03-14T18:34:51.478Z,19.25
2018-03-14T18:37:19.041Z,19.27
2018-03-14T18:39:46.500Z,20.55
2018-03-14T18:42:14.045Z,25.77
2018-03-14T18:44:41.568Z,25.30
2018-03-14T18:47:09.016Z,21.00
2018-03-14T18:49:37.736Z,18.50
2018-03-14T18:52:05.494Z,22.40
2018-03-14T18:54:32.957Z,19.70
2018-03-14T18:57:02.126Z,20.33
2018-03-14T18:59:29.607Z,21.43
2018-03-14T19:01:57.069Z,20.63
2018-03-14T19:04:24.559Z,21.25
2018-03-14T19:06:52.001Z,24.85
2018-03-14T19:09:19.536Z,22.63
2018-03-14T19:11:46.996Z,19.20
2018-03-14T19:14:14.950Z,24.25
2018-03-14T19:16:42.428Z,24.10
2018-03-14T19:19:09.954Z,22.15
2018-03-14T19:21:37.952Z,24.25
2018-03-14T19:24:05.434Z,25.52
2018-03-14T19:26:32.987Z,26.30
2018-03-14T19:29:01.360Z,29.87
2018-03-14T19:31:30.333Z,22.37
2018-03-14T19:33:57.863Z,27.70
2018-03-14T19:36:26.081Z,23.08
2018-03-14T19:38:58.462Z,27.37
2018-03-14T19:41:25.982Z,25.50
2018-03-14T19:43:55.178Z,30.08
2018-03-14T19:46:22.742Z,24.87
2018-03-14T19:48:50.369Z,29.60
2018-03-14T19:51:17.900Z,30.50
2018-03-14T19:53:45.432Z,24.77
2018-03-14T19:56:14.648Z,24.83
2018-03-14T19:58:42.112Z,25.40
2018-03-14T20:01:09.706Z,24.65
2018-03-14T20:03:37.311Z,25.33
2018-03-14T20:06:04.791Z,26.65
2018-03-14T20:08:33.252Z,26.42
2018-03-14T20:11:01.594Z,26.93
2018-03-14T20:13:29.780Z,33.33
2018-03-14T20:15:59.091Z,25.90
2018-03-14T20:18:26.562Z,23.70
2018-03-14T20:20:55.602Z,25.63
2018-03-14T20:23:23.934Z,36.93
2018-03-14T20:25:51.439Z,30.07
2018-03-14T20:28:18.922Z,23.38
2018-03-14T20:30:48.589Z,26.10
2018-03-14T20:33:16.142Z,28.43
2018-03-14T20:35:43.657Z,31.33
2018-03-14T20:38:12.883Z,22.33
2018-03-14T20:40:44.813Z,29.48
2018-03-14T20:43:12.596Z,31.10
2018-03-14T20:45:40.147Z,25.63
2018-03-14T20:48:07.616Z,25.03
2018-03-14T20:50:35.276Z,28.93
2018-03-14T20:53:03.894Z,21.20
2018-03-14T20:55:35.605Z,24.45
2018-03-14T20:58:03.059Z,27.17
2018-03-14T21:00:33.761Z,23.47
2018-03-14T21:03:02.016Z,25.98
2018-03-14T21:05:30.112Z,25.47
2018-03-14T21:07:58.591Z,33.77
2018-03-14T21:10:30.658Z,25.87
2018-03-14T21:12:59.860Z,21.93
2018-03-14T21:15:28.042Z,20.62
2018-03-14T21:17:55.501Z,22.60
2018-03-14T21:20:23.666Z,31.10
2018-03-14T21:22:54.156Z,27.07
2018-03-14T21:25:25.016Z,26.48
2018-03-14T21:27:56.891Z,24.95
2018-03-14T21:30:24.380Z,23.33
2018-03-14T21:32:51.931Z,29.00
2018-03-14T21:35:19.434Z,27.10
2018-03-14T21:37:48.607Z,26.55
2018-03-14T21:40:16.149Z,24.05
2018-03-14T21:42:47.417Z,26.73
2018-03-14T21:45:15.091Z,31.00
2018-03-14T21:47:42.871Z,29.15
2018-03-14T21:50:11.100Z,23.80
2018-03-14T21:52:38.556Z,25.47
2018-03-14T21:55:06.109Z,27.37
2018-03-14T21:57:33.571Z,20.50
2018-03-14T22:00:01.745Z,24.90
2018-03-14T22:02:29.193Z,29.70
2018-03-14T22:04:56.650Z,22.73
2018-03-14T22:07:24.136Z,23.40
2018-03-14T22:09:52.590Z,20.17
2018-03-14T22:12:23.405Z,24.00
2018-03-14T22:14:52.049Z,24.05
2018-03-14T22:17:20.444Z,25.17
2018-03-14T22:19:48.816Z,21.43
2018-03-14T22:22:16.357Z,22.98
2018-03-14T22:24:44.501Z,27.33
2018-03-14T22:27:11.996Z,20.63
2018-03-14T22:29:39.453Z,22.97
2018-03-14T22:32:06.926Z,25.37
2018-03-14T22:34:35.978Z,35.10
2018-03-14T22:37:03.452Z,26.00
2018-03-14T22:39:30.927Z,28.50
2018-03-14T22:42:01.153Z,30.15
2018-03-14T22:44:32.669Z,28.63
2018-03-14T22:47:01.600Z,24.35
2018-03-14T22:49:29.037Z,26.27
2018-03-14T22:51:56.484Z,25.17
2018-03-14T22:54:23.969Z,23.67
2018-03-14T22:56:51.459Z,26.80
2018-03-14T22:59:24.174Z,22.70
2018-03-14T23:01:51.668Z,23.55
2018-03-14T23:04:19.716Z,27.33
2018-03-14T23:06:47.256Z,27.23
2018-03-14T23:09:15.534Z,22.75
2018-03-14T23:11:43.054Z,22.60
2018-03-14T23:14:16.168Z,22.93
2018-03-14T23:16:43.662Z,22.90
2018-03-14T23:19:11.655Z,24.37
2018-03-14T23:21:39.182Z,24.47
2018-03-14T23:24:07.548Z,25.60
2018-03-14T23:26:37.146Z,23.92
2018-03-14T23:29:08.101Z,23.00
2018-03-14T23:31:36.073Z,21.20
2018-03-14T23:34:03.563Z,24.97
2018-03-14T23:36:31.019Z,25.27
2018-03-14T23:38:59.489Z,26.37
2018-03-14T23:41:26.973Z,21.80
2018-03-14T23:43:58.017Z,25.90
2018-03-14T23:46:25.473Z,23.63
2018-03-14T23:48:52.964Z,24.77
2018-03-14T23:51:20.438Z,25.57
2018-03-14T23:53:47.917Z,20.70
2018-03-14T23:56:15.409Z,22.93
2018-03-14T23:58:44.559Z,22.60
